Etusivu
METAR-TAF:

METAR-TAF

Lentoasemat :

Remada, Tunisia

Leveyspiiri: 32-19N, Pituuspiiri: 010-24E, korkeus merenpinnasta: 300 m

Tämänhetkinen sää

Tämä raportti tehtiin 1 tunti ja 13 minuuttia sitten, kello 00.00 UTC
Tuuli 2 kn eri suunnista
Lämpötila 28°C
Kosteus 25%
Ilmanpaine 1017 hPa

METAR: DTTD 190000Z AUTO VRB02KT NCD 28/06 Q1017

Aika: 02:13 (01:13 UTC)


TAF: puuttuu

Säähavainnot ja -ennusteet yli 4000 lentoasemalta (METAR- ja TAF-raportit).

Käytössä olevat sääasemat on merkitty karttaan keltaisilla ja punaisilla pisteillä.

Aseta hiiri pisteen päälle nähdäksesi sääaseman nimen.

Klikkaa sitten nähdäksesi säähavainnot ja -ennusteet.

Kartan vaihtaminen: klikkaa mustalla rastilla varustettuja vihreitä pisteitä, niin voit zoomata sisään; viivalla varustettua vihreää pistettä, niin voit zoomata ulos tai vihreitä nuolia, niin pääset viereisille kartoille.


METAR-TAF: